Historyczne dane pomiarowe

Dodano dane terminowe – wersja testowa.

Dane z okresu 1951-2019

Wersja bazy: 1.34 [2019-03-16, lista zmian], aktualizacja planowana na 2019-04-15

Dane meteo z obszaru Polski uzyskane na podstawie danych udostępnionych przez Instytut Meteorologii i Gospodarki Wodnej – Państwowy Instytut Badawczy.

 

Wybierz Datę:    

       

TemperaturaWilgotnośćZachmurzenieWiatrCiśnienieWidzialnośćZjawiska
 Data    tng td wb rh cc ccl cl cm ch dir g1 g2 mslp ppp      
1994-08-11 00:00:00 20.2--- 14.0 16.468wxwxwx0wx--1004.6 965.3 0.0---wx
1994-08-11 01:00:00 19.8--- 13.9 16.269wxwxwx0wx--1003.9 964.5----wx
1994-08-11 02:00:00 19.0--- 14.8 16.477wxwxwx0wx--1004.1 964.6----wx
1994-08-11 03:00:00 18.3--- 16.1 16.987wxwxwx0wx--1004.1 964.5----wx
1994-08-11 04:00:00 17.8--- 17.0 17.395wxwxwx0wx--1003.7 964.1----wxw1
1994-08-11 05:00:00 17.8--- 16.9 17.294wxwxwx2wx--1003.6 964.0----wxw1
1994-08-11 06:00:00 18.0--- 17.1 17.494wxwxwx0wx--1003.9 964.3 3.9---wxw1
1994-08-11 07:00:00 18.1--- 17.2 17.594wxwxwx0wx--1003.8 964.2----wxw1
1994-08-11 08:00:00 18.6--- 17.2 17.792wxwxwx2wx--1003.0 963.5----wx
1994-08-11 09:00:00 18.3--- 18.0 18.198wxwxwx3wx--1003.0 963.5----wxw1
1994-08-11 10:00:00 18.2--- 17.6 17.896wxwxwx2wx--1004.2 964.6----wxw1
1994-08-11 11:00:00 17.6--- 17.0 17.296wxwxwx2wx--1004.8 965.1----wxw1
1994-08-11 12:00:00 17.3--- 15.9 16.491wxwxwx4wx--1005.5 965.7 4.9---wxw1
1994-08-11 13:00:00 18.5--- 16.1 17.086wxwxwx2wx--1005.5 965.9----wx
1994-08-11 14:00:00 19.4--- 15.6 17.079wxwxwx5wx11-1005.9 966.4----wx
1994-08-11 15:00:00 18.0--- 16.1 16.889wxwxwx3wx--1006.6 966.9----wx
1994-08-11 16:00:00 19.2--- 15.7 17.080wxwxwx5wx--1006.9 967.3----wx
1994-08-11 17:00:00 18.2--- 15.3 16.483wxwxwx4wx--1007.0 967.3----wx
1994-08-11 18:00:00 18.0--- 15.1 16.283wxwxwxwx3wx--1007.5 967.7 0.5---wxw1
1994-08-11 19:00:00 17.4--- 15.0 15.986wxwxwxwx2wx--1008.0 968.1----wx
1994-08-11 20:00:00 16.4--- 14.4 15.288wxwxwx0wx--1008.3 968.3----wx
1994-08-11 21:00:00 15.3--- 14.5 14.895wxwxwx0wx--1008.7 968.5----wx
1994-08-11 22:00:00 14.7--- 14.0 14.396wxwxwx0wx--1008.9 968.6----wx
1994-08-11 23:00:00 13.8--- 13.1 13.496wxwxwx0wx--1009.0 968.6----wx

 

Źródłem pochodzenia danych jest Instytut Meteorologii i Gospodarki Wodnej – Państwowy Instytut Badawczy. Dane Instytutu Meteorologii i Gospodarki Wodnej – Państwowego Instytutu Badawczego zostały przetworzone.

Dane źródłowe można odnaleźć na stronie https://dane.imgw.pl